Time;durP1;ratioP1;P1;durP2;ratioP2;P2;SDS_P1;SDS_P2;PMS_P1;PMS_P2;Temp;Humidity;BMP_temperature;BMP_pressure;BME280_temperature;BME280_humidity;BME280_pressure;Samples;Min_cycle;Max_cycle;Signal;HPM_P1;HPM_P2
2022/11/23 00:01:42;;;;;;;7.23;5.07;;;8.70;89.80;;;;;;5060743;28;20663;-72
2022/11/23 00:04:11;;;;;;;9.20;5.90;;;8.70;89.60;;;;;;5065301;28;20236;-73
2022/11/23 00:06:37;;;;;;;6.37;5.27;;;8.80;90.00;;;;;;5068905;28;20179;-73
2022/11/23 00:09:03;;;;;;;6.13;5.03;;;8.70;90.00;;;;;;5063074;28;20190;-73
2022/11/23 00:11:29;;;;;;;5.57;5.00;;;8.60;90.50;;;;;;5074415;28;20229;-73
2022/11/23 00:13:56;;;;;;;13.10;6.00;;;8.50;91.10;;;;;;5065625;28;20179;-73
2022/11/23 00:16:27;;;;;;;5.20;4.70;;;8.40;91.80;;;;;;5062113;28;20210;-73
2022/11/23 00:18:58;;;;;;;6.57;5.18;;;8.40;91.60;;;;;;5071373;28;20174;-73
2022/11/23 00:21:25;;;;;;;6.17;4.50;;;8.50;91.40;;;;;;5061744;28;20178;-72
2022/11/23 00:23:51;;;;;;;4.57;4.17;;;8.50;91.20;;;;;;5062785;28;20318;-73
2022/11/23 00:26:18;;;;;;;8.47;4.27;;;8.60;91.20;;;;;;5064235;28;20322;-72
2022/11/23 00:28:44;;;;;;;4.57;4.07;;;8.60;90.90;;;;;;5058935;28;20201;-73
2022/11/23 00:31:12;;;;;;;4.13;3.73;;;8.60;90.80;;;;;;5063720;28;20776;-73
2022/11/23 00:33:39;;;;;;;5.07;3.80;;;8.60;90.70;;;;;;5059038;28;20648;-73
2022/11/23 00:36:09;;;;;;;5.90;4.50;;;8.70;90.60;;;;;;5067013;28;20193;-73
2022/11/23 00:38:34;;;;;;;6.70;4.20;;;8.70;90.70;;;;;;5059986;28;20179;-73
2022/11/23 00:41:03;;;;;;;4.77;4.20;;;8.70;90.70;;;;;;5063374;28;20191;-73
2022/11/23 00:43:29;;;;;;;3.63;3.43;;;8.80;90.50;;;;;;5060756;28;20259;-73
2022/11/23 00:46:14;;;;;;;5.18;3.55;;;8.80;90.30;;;;;;5065928;28;20958;-73
2022/11/23 00:48:41;;;;;;;4.20;3.43;;;8.70;90.10;;;;;;5059175;28;20183;-73
2022/11/23 00:51:09;;;;;;;4.00;3.60;;;8.80;90.40;;;;;;5060718;28;20242;-74
2022/11/23 00:53:35;;;;;;;4.82;3.45;;;8.80;90.60;;;;;;5067739;28;20174;-73
2022/11/23 00:56:01;;;;;;;6.33;3.77;;;8.80;90.40;;;;;;5063483;28;20182;-73
2022/11/23 00:58:27;;;;;;;3.53;3.30;;;8.80;90.50;;;;;;5065104;28;20630;-73
2022/11/23 01:01:20;;;;;;;4.35;3.95;;;8.70;90.30;;;;;;5061147;28;20183;-73
2022/11/23 01:03:51;;;;;;;4.28;3.47;;;8.80;90.30;;;;;;5066057;28;20256;-73
2022/11/23 01:06:26;;;;;;;7.32;3.25;;;8.80;90.40;;;;;;5071947;28;20273;-73
2022/11/23 01:09:04;;;;;;;3.38;3.00;;;8.80;90.50;;;;;;5064547;28;20247;-74
2022/11/23 01:11:31;;;;;;;2.85;2.75;;;8.80;90.20;;;;;;5071618;28;21035;-73
2022/11/23 01:13:57;;;;;;;4.97;4.05;;;8.80;90.60;;;;;;5066687;28;20210;-73
2022/11/23 01:16:26;;;;;;;3.63;3.33;;;8.80;90.80;;;;;;5069190;28;20183;-73
2022/11/23 01:19:00;;;;;;;3.38;3.20;;;8.80;91.00;;;;;;5071029;28;20624;-73
2022/11/23 01:21:28;;;;;;;3.83;3.53;;;8.80;91.10;;;;;;5067618;28;20175;-73
2022/11/23 01:23:54;;;;;;;4.13;3.73;;;8.90;91.00;;;;;;5066063;28;20554;-73
2022/11/23 01:26:20;;;;;;;4.22;3.55;;;8.90;90.60;;;;;;5075392;28;20251;-73
2022/11/23 01:28:46;;;;;;;4.70;3.50;;;8.90;90.50;;;;;;5064929;28;20656;-73
2022/11/23 01:31:21;;;;;;;3.40;3.15;;;8.90;90.40;;;;;;5066014;28;20236;-73
2022/11/23 01:33:52;;;;;;;3.15;2.95;;;8.90;90.20;;;;;;5068004;28;20759;-73
2022/11/23 01:36:19;;;;;;;4.15;3.75;;;8.90;90.40;;;;;;5070379;28;20179;-73
2022/11/23 01:38:46;;;;;;;4.40;3.92;;;8.90;91.00;;;;;;5069648;28;20191;-73
2022/11/23 01:41:15;;;;;;;4.93;3.28;;;8.90;90.80;;;;;;5073869;28;20197;-73
2022/11/23 01:43:41;;;;;;;3.33;3.03;;;8.90;90.70;;;;;;5070268;28;20239;-72
2022/11/23 01:46:08;;;;;;;7.82;3.17;;;8.90;90.70;;;;;;5068466;28;20233;-73
2022/11/23 01:48:43;;;;;;;3.40;2.97;;;9.00;90.70;;;;;;5068343;28;20180;-73
2022/11/23 01:51:15;;;;;;;3.10;2.83;;;9.00;91.10;;;;;;5069504;28;20245;-73
2022/11/23 01:53:41;;;;;;;5.07;3.53;;;9.10;91.60;;;;;;5068362;28;20189;-73
2022/11/23 01:56:12;;;;;;;3.60;3.30;;;9.00;91.50;;;;;;5071780;28;20182;-73
2022/11/23 01:58:41;;;;;;;2.90;2.70;;;9.00;91.40;;;;;;5068043;28;22014;-73
2022/11/23 02:01:07;;;;;;;3.42;3.15;;;9.00;91.30;;;;;;5066621;28;20202;-72
2022/11/23 02:03:35;;;;;;;4.03;3.28;;;8.90;91.00;;;;;;5070682;28;20240;-72
2022/11/23 02:06:05;;;;;;;2.72;2.53;;;8.90;92.60;;;;;;5075098;28;20174;-72
2022/11/23 02:08:31;;;;;;;2.63;2.42;;;8.90;92.30;;;;;;5071760;28;20711;-72
2022/11/23 02:10:57;;;;;;;3.60;2.73;;;8.80;92.20;;;;;;5074041;28;20218;-73
2022/11/23 02:13:24;;;;;;;4.97;2.73;;;8.80;92.00;;;;;;5062247;28;20179;-73
2022/11/23 02:15:51;;;;;;;2.42;2.33;;;8.70;92.30;;;;;;5065708;28;20668;-73
2022/11/23 02:18:22;;;;;;;2.50;2.37;;;8.80;92.40;;;;;;5061856;28;20211;-72
2022/11/23 02:20:48;;;;;;;4.53;3.00;;;8.80;92.90;;;;;;5071233;28;20633;-73
2022/11/23 02:23:44;;;;;;;4.73;2.97;;;8.80;92.60;;;;;;5071186;28;20188;-72
2022/11/23 02:26:15;;;;;;;3.20;2.90;;;8.70;92.10;;;;;;5070451;28;20191;-73
2022/11/23 02:28:48;;;;;;;2.83;2.55;;;8.70;92.00;;;;;;5067092;28;20327;-73
2022/11/23 02:31:14;;;;;;;3.27;2.77;;;8.70;91.90;;;;;;5065739;28;20594;-72
2022/11/23 02:33:40;;;;;;;3.37;3.03;;;8.70;91.80;;;;;;5063296;28;20179;-73
2022/11/23 02:36:28;;;;;;;4.90;3.40;;;8.70;91.70;;;;;;5072269;28;20186;-73
2022/11/23 02:38:55;;;;;;;3.80;2.55;;;8.70;91.50;;;;;;5068347;28;20191;-73
2022/11/23 02:41:21;;;;;;;3.30;3.00;;;8.70;91.80;;;;;;5068053;28;20210;-73
2022/11/23 02:43:53;;;;;;;2.85;2.38;;;8.70;91.80;;;;;;5065874;28;20210;-72
2022/11/23 02:46:18;;;;;;;5.97;3.47;;;8.70;91.60;;;;;;5071497;28;20222;-73
2022/11/23 02:48:44;;;;;;;3.72;3.05;;;8.70;91.40;;;;;;5064253;28;20621;-73
2022/11/23 02:51:09;;;;;;;3.53;3.13;;;8.80;91.50;;;;;;5069028;28;21026;-73
2022/11/23 02:53:35;;;;;;;2.90;2.70;;;8.80;91.80;;;;;;5066535;28;20183;-73
2022/11/23 02:56:01;;;;;;;3.25;3.03;;;8.80;91.60;;;;;;5068283;28;20281;-72
2022/11/23 02:58:26;;;;;;;4.65;4.10;;;8.80;91.60;;;;;;5066595;28;20266;-73
2022/11/23 03:00:52;;;;;;;4.23;3.83;;;8.70;92.30;;;;;;5064409;28;20403;-73
2022/11/23 03:03:17;;;;;;;4.40;3.70;;;8.70;91.90;;;;;;5065867;28;20203;-73
2022/11/23 03:05:43;;;;;;;3.83;3.47;;;8.70;91.70;;;;;;5071905;28;20233;-73
2022/11/23 03:08:09;;;;;;;3.38;3.20;;;8.80;91.70;;;;;;5069524;28;20182;-73
2022/11/23 03:10:34;;;;;;;3.75;3.45;;;8.80;92.10;;;;;;5071743;28;20221;-73
2022/11/23 03:13:00;;;;;;;4.20;3.83;;;8.80;92.10;;;;;;5066639;28;20187;-73
2022/11/23 03:15:27;;;;;;;4.75;3.65;;;8.80;92.30;;;;;;5063836;28;20627;-73
2022/11/23 03:17:52;;;;;;;4.35;3.95;;;8.80;92.00;;;;;;5065944;28;20667;-73
2022/11/23 03:20:18;;;;;;;4.40;3.78;;;8.80;92.30;;;;;;5073529;28;20243;-73
2022/11/23 03:22:44;;;;;;;4.25;3.83;;;8.80;92.60;;;;;;5067384;28;20183;-74
2022/11/23 03:25:10;;;;;;;5.80;4.17;;;8.80;92.20;;;;;;5069454;28;20178;-73
2022/11/23 03:27:37;;;;;;;4.60;3.90;;;8.80;92.70;;;;;;5070441;28;20217;-73
2022/11/23 03:30:04;;;;;;;3.77;3.47;;;8.70;92.50;;;;;;5065453;28;20210;-73
2022/11/23 03:32:29;;;;;;;4.07;3.67;;;8.70;92.20;;;;;;5062496;28;20174;-73
2022/11/23 03:34:55;;;;;;;4.60;3.60;;;8.70;93.20;;;;;;5066287;28;20784;-73
2022/11/23 03:37:21;;;;;;;3.40;3.20;;;8.70;93.40;;;;;;5065497;28;20202;-73
2022/11/23 03:39:46;;;;;;;3.93;3.63;;;8.60;93.50;;;;;;5064460;28;20187;-73
2022/11/23 03:42:12;;;;;;;4.20;3.87;;;8.50;93.30;;;;;;5065734;28;20183;-74
2022/11/23 03:44:37;;;;;;;3.53;2.97;;;8.50;93.80;;;;;;5067824;28;20221;-73
2022/11/23 03:47:03;;;;;;;4.10;3.63;;;8.50;93.90;;;;;;5067014;28;20185;-73
2022/11/23 03:49:29;;;;;;;4.00;3.50;;;8.50;93.50;;;;;;5071338;28;20178;-73
2022/11/23 03:51:54;;;;;;;3.63;3.43;;;8.50;93.70;;;;;;5063781;28;20179;-73
2022/11/23 03:54:20;;;;;;;3.20;2.90;;;8.50;93.80;;;;;;5067649;28;20256;-73
2022/11/23 03:56:46;;;;;;;4.10;3.00;;;8.40;93.50;;;;;;5064907;28;20182;-73
2022/11/23 03:59:11;;;;;;;3.70;2.80;;;8.40;93.50;;;;;;5066976;28;20182;-73
2022/11/23 04:01:37;;;;;;;4.33;2.47;;;8.40;93.50;;;;;;5060005;28;20191;-73
2022/11/23 04:04:03;;;;;;;3.40;2.57;;;8.40;93.40;;;;;;5063995;28;20179;-73
2022/11/23 04:06:28;;;;;;;3.10;2.97;;;8.40;93.30;;;;;;5066703;28;21442;-73
2022/11/23 04:08:54;;;;;;;3.00;2.80;;;8.40;93.30;;;;;;5063891;28;20622;-73
2022/11/23 04:11:20;;;;;;;1.97;1.87;;;8.40;93.30;;;;;;5066468;28;20301;-74
2022/11/23 04:13:46;;;;;;;3.50;3.23;;;8.40;93.50;;;;;;5067185;28;20183;-73
2022/11/23 04:16:11;;;;;;;2.90;2.70;;;8.50;93.80;;;;;;5062641;28;20259;-73
2022/11/23 04:18:37;;;;;;;2.73;2.57;;;8.50;93.70;;;;;;5059456;28;20740;-73
2022/11/23 04:21:03;;;;;;;2.57;2.37;;;8.50;93.30;;;;;;5065098;28;20183;-75
2022/11/23 04:23:28;;;;;;;4.00;2.73;;;8.50;93.20;;;;;;5066779;28;20186;-73
2022/11/23 04:25:54;;;;;;;3.00;2.90;;;8.50;93.30;;;;;;5069891;28;20178;-73
2022/11/23 04:28:19;;;;;;;2.83;2.63;;;8.50;93.60;;;;;;5064451;28;20934;-73
2022/11/23 04:30:45;;;;;;;3.37;2.43;;;8.50;93.30;;;;;;5062776;28;20864;-73
2022/11/23 04:33:11;;;;;;;3.40;3.20;;;8.60;93.30;;;;;;5067805;28;20996;-73
2022/11/23 04:35:37;;;;;;;3.67;3.47;;;8.60;93.70;;;;;;5069903;28;20575;-74
2022/11/23 04:38:02;;;;;;;3.17;2.87;;;8.60;93.80;;;;;;5066304;28;20661;-73
2022/11/23 04:40:30;;;;;;;2.70;2.50;;;8.60;93.90;;;;;;5066299;28;20187;-74
2022/11/23 04:42:57;;;;;;;3.10;2.90;;;8.60;93.70;;;;;;5063917;28;20177;-73
2022/11/23 04:45:22;;;;;;;5.37;3.40;;;8.60;94.10;;;;;;5062692;28;20187;-73
2022/11/23 04:47:48;;;;;;;3.77;3.47;;;8.60;94.20;;;;;;5064278;28;20201;-73
2022/11/23 04:50:15;;;;;;;3.27;3.17;;;8.60;93.90;;;;;;5070079;28;20810;-73
2022/11/23 04:52:40;;;;;;;3.57;3.27;;;8.60;94.00;;;;;;5061842;28;20257;-73
2022/11/23 04:55:06;;;;;;;3.47;3.17;;;8.60;94.10;;;;;;5062755;28;20194;-73
2022/11/23 04:57:32;;;;;;;3.80;3.50;;;8.60;94.60;;;;;;5066310;28;20264;-73
2022/11/23 04:59:58;;;;;;;3.93;3.60;;;8.50;94.60;;;;;;5065259;28;20198;-72
2022/11/23 05:02:23;;;;;;;4.87;3.67;;;8.50;95.00;;;;;;5066959;28;20189;-72
2022/11/23 05:04:49;;;;;;;4.13;3.73;;;8.50;94.60;;;;;;5059628;28;20194;-72
2022/11/23 05:07:15;;;;;;;4.23;3.93;;;8.50;94.70;;;;;;5068709;28;20264;-73
2022/11/23 05:09:41;;;;;;;4.20;3.90;;;8.50;95.20;;;;;;5068492;28;20294;-72
2022/11/23 05:12:06;;;;;;;5.40;4.90;;;8.50;95.00;;;;;;5067752;28;20182;-73
2022/11/23 05:14:32;;;;;;;6.20;4.00;;;8.40;94.60;;;;;;5061013;28;20785;-73
2022/11/23 05:16:58;;;;;;;4.30;4.00;;;8.50;95.10;;;;;;5069991;28;20183;-73
2022/11/23 05:19:23;;;;;;;3.97;3.77;;;8.40;95.10;;;;;;5067682;28;20183;-74
2022/11/23 05:21:49;;;;;;;4.33;3.83;;;8.40;95.00;;;;;;5061584;28;20181;-75
2022/11/23 05:24:15;;;;;;;5.60;4.33;;;8.40;95.00;;;;;;5067412;28;20245;-74
2022/11/23 05:26:41;;;;;;;4.53;4.00;;;8.40;95.00;;;;;;5068223;28;20177;-74
2022/11/23 05:29:06;;;;;;;4.27;3.87;;;8.50;95.10;;;;;;5070019;28;20191;-74
2022/11/23 05:31:32;;;;;;;6.07;4.90;;;8.40;94.70;;;;;;5061513;28;20732;-75
2022/11/23 05:33:58;;;;;;;3.77;3.53;;;8.40;94.60;;;;;;5068070;28;20189;-75
2022/11/23 05:36:23;;;;;;;5.60;4.53;;;8.40;94.50;;;;;;5069029;28;20174;-74
2022/11/23 05:38:50;;;;;;;5.00;4.60;;;8.50;94.80;;;;;;5065112;28;20183;-74
2022/11/23 05:41:16;;;;;;;5.00;4.20;;;8.50;94.90;;;;;;5065809;28;20628;-74
2022/11/23 05:43:41;;;;;;;5.47;5.00;;;8.50;94.80;;;;;;5060555;28;20178;-73
2022/11/23 05:46:07;;;;;;;7.53;5.77;;;8.40;96.50;;;;;;5068193;28;20202;-74
2022/11/23 05:48:32;;;;;;;4.93;4.63;;;8.30;95.90;;;;;;5070197;28;20273;-74
2022/11/23 05:50:58;;;;;;;6.00;5.40;;;8.30;95.70;;;;;;5065509;28;20221;-75
2022/11/23 05:53:24;;;;;;;5.20;4.73;;;8.30;96.00;;;;;;5064589;28;20245;-73
2022/11/23 05:55:49;;;;;;;5.43;4.93;;;8.20;95.90;;;;;;5068758;28;20575;-73
2022/11/23 05:58:15;;;;;;;6.93;4.90;;;8.30;96.00;;;;;;5070804;28;20729;-73
2022/11/23 06:00:41;;;;;;;7.10;4.80;;;8.30;95.80;;;;;;5068414;28;20281;-71
2022/11/23 06:03:07;;;;;;;5.10;4.47;;;8.40;95.90;;;;;;5074870;28;20183;-72
2022/11/23 06:05:32;;;;;;;5.67;5.10;;;8.40;96.00;;;;;;5072603;28;20209;-71
2022/11/23 06:07:58;;;;;;;5.57;5.07;;;8.40;95.90;;;;;;5067199;28;20175;-72
2022/11/23 06:10:24;;;;;;;5.77;4.37;;;8.40;95.70;;;;;;5068165;28;20237;-71
2022/11/23 06:12:50;;;;;;;4.53;4.03;;;8.40;95.70;;;;;;5069523;28;20183;-70
2022/11/23 06:15:17;;;;;;;6.10;5.37;;;8.50;95.50;;;;;;5068101;28;20838;-72
2022/11/23 06:17:43;;;;;;;4.93;4.53;;;8.50;95.80;;;;;;5066397;28;20179;-72
2022/11/23 06:20:08;;;;;;;4.53;4.17;;;8.60;95.60;;;;;;5067269;28;20190;-72
2022/11/23 06:22:34;;;;;;;5.20;4.80;;;8.60;95.70;;;;;;5068491;28;20179;-71
2022/11/23 06:25:00;;;;;;;4.90;4.50;;;8.50;96.00;;;;;;5070472;28;20183;-72
2022/11/23 06:27:26;;;;;;;6.20;5.60;;;8.50;95.90;;;;;;5067292;28;20195;-71
2022/11/23 06:29:52;;;;;;;5.57;4.73;;;8.60;96.10;;;;;;5068890;28;20210;-71
2022/11/23 06:32:17;;;;;;;5.33;4.87;;;8.60;96.00;;;;;;5069715;28;20285;-72
2022/11/23 06:34:43;;;;;;;7.53;4.97;;;8.60;95.80;;;;;;5067747;28;20187;-71
2022/11/23 06:37:09;;;;;;;5.67;5.20;;;8.70;96.10;;;;;;5057148;28;20186;-72
2022/11/23 06:39:35;;;;;;;5.00;4.47;;;8.70;96.20;;;;;;5066686;28;20193;-71
2022/11/23 06:42:00;;;;;;;6.38;5.45;;;8.70;95.80;;;;;;5075141;28;20198;-71
2022/11/23 06:44:26;;;;;;;5.77;5.17;;;8.90;96.30;;;;;;5069347;28;20275;-72
2022/11/23 06:46:52;;;;;;;7.03;4.77;;;8.80;96.20;;;;;;5073964;28;20183;-71
2022/11/23 06:49:19;;;;;;;5.93;5.13;;;8.90;96.00;;;;;;5074863;28;20187;-70
2022/11/23 06:51:45;;;;;;;5.97;5.40;;;8.90;96.20;;;;;;5073426;28;20700;-70
2022/11/23 06:54:11;;;;;;;6.63;5.68;;;9.00;96.20;;;;;;5070707;28;20217;-72
2022/11/23 06:56:37;;;;;;;12.87;5.83;;;9.10;96.00;;;;;;5071004;28;20203;-71
2022/11/23 06:59:03;;;;;;;7.67;5.67;;;9.10;96.10;;;;;;5072591;28;20179;-70
2022/11/23 07:01:28;;;;;;;7.88;5.55;;;9.10;96.10;;;;;;5071172;28;20252;-71
2022/11/23 07:03:54;;;;;;;8.63;5.18;;;9.20;96.20;;;;;;5071397;28;20236;-71
2022/11/23 07:06:19;;;;;;;6.05;5.53;;;9.30;96.10;;;;;;5066784;28;20629;-71
2022/11/23 07:08:45;;;;;;;7.25;6.00;;;9.30;96.00;;;;;;5072304;28;20186;-70
2022/11/23 07:11:11;;;;;;;7.22;5.18;;;9.50;96.50;;;;;;5073033;28;20254;-70
2022/11/23 07:13:37;;;;;;;7.05;5.93;;;9.60;96.20;;;;;;5066713;28;20179;-71
2022/11/23 07:16:03;;;;;;;6.75;6.15;;;9.70;96.00;;;;;;5076249;28;20205;-70
2022/11/23 07:18:29;;;;;;;6.28;5.57;;;9.80;96.00;;;;;;5075295;28;20224;-71
2022/11/23 07:20:58;;;;;;;6.97;5.20;;;9.90;95.90;;;;;;5067068;28;20791;-71
2022/11/23 07:23:25;;;;;;;5.43;4.93;;;10.00;95.90;;;;;;5066056;28;20186;-72
2022/11/23 07:25:50;;;;;;;5.57;5.10;;;10.00;95.60;;;;;;5066587;28;20274;-70
2022/11/23 07:28:16;;;;;;;8.88;5.72;;;10.10;95.10;;;;;;5065704;28;20183;-71
2022/11/23 07:30:42;;;;;;;7.70;5.82;;;10.10;94.80;;;;;;5067798;28;20253;-71
2022/11/23 07:33:11;;;;;;;8.43;6.25;;;10.10;94.70;;;;;;5068357;28;20248;-71
2022/11/23 07:35:39;;;;;;;8.00;5.85;;;10.10;94.70;;;;;;5070099;28;20190;-71
2022/11/23 07:38:08;;;;;;;6.68;5.95;;;10.10;94.10;;;;;;5071921;28;20214;-71
2022/11/23 07:40:36;;;;;;;7.68;5.82;;;10.00;94.10;;;;;;5068399;28;20187;-70
2022/11/23 07:43:03;;;;;;;6.57;6.03;;;10.00;94.10;;;;;;5065886;28;20190;-71
2022/11/23 07:45:29;;;;;;;6.47;5.88;;;10.00;94.40;;;;;;5065685;28;20286;-71
2022/11/23 07:47:59;;;;;;;6.97;5.75;;;10.00;94.50;;;;;;5065962;28;20258;-71
2022/11/23 07:50:25;;;;;;;6.53;5.90;;;10.10;94.40;;;;;;5071972;28;20214;-72
2022/11/23 07:52:51;;;;;;;6.28;5.65;;;10.10;94.30;;;;;;5069134;28;20283;-71
2022/11/23 07:55:17;;;;;;;8.43;5.85;;;10.20;94.30;;;;;;5069530;28;20700;-71
2022/11/23 07:57:42;;;;;;;5.95;4.95;;;10.30;95.20;;;;;;5073137;28;20178;-71
2022/11/23 08:00:09;;;;;;;5.43;4.95;;;10.70;96.80;;;;;;5068668;28;20178;-71
2022/11/23 08:02:35;;;;;;;6.75;5.88;;;11.20;95.00;;;;;;5069075;28;20205;-71
2022/11/23 08:05:00;;;;;;;8.18;5.60;;;11.70;94.50;;;;;;5070310;28;20191;-71
2022/11/23 08:07:26;;;;;;;9.13;5.32;;;12.30;94.00;;;;;;5072787;28;20186;-71
2022/11/23 08:09:51;;;;;;;6.22;5.63;;;12.90;92.30;;;;;;5070551;28;20214;-71
2022/11/23 08:12:17;;;;;;;8.93;6.18;;;13.60;92.30;;;;;;5069715;28;20183;-71
2022/11/23 08:14:43;;;;;;;7.00;5.72;;;14.40;88.10;;;;;;5070782;28;20710;-71
2022/11/23 08:17:09;;;;;;;7.07;6.38;;;15.10;89.10;;;;;;5066256;28;20619;-71
2022/11/23 08:19:34;;;;;;;8.00;7.20;;;15.60;86.40;;;;;;5061435;28;20526;-71
2022/11/23 08:22:00;;;;;;;7.38;6.55;;;16.30;84.30;;;;;;5059605;28;20216;-72
2022/11/23 08:24:26;;;;;;;8.20;6.95;;;16.80;84.30;;;;;;5060129;28;20285;-72
2022/11/23 08:26:51;;;;;;;7.32;6.72;;;17.50;84.40;;;;;;5065450;28;20256;-71
2022/11/23 08:29:17;;;;;;;8.48;7.38;;;18.10;80.50;;;;;;5064847;28;20571;-71
2022/11/23 08:31:43;;;;;;;8.50;7.68;;;18.80;80.70;;;;;;5072334;28;20711;-71
2022/11/23 08:34:08;;;;;;;9.40;7.80;;;19.50;80.60;;;;;;5067405;28;20239;-72
2022/11/23 08:36:34;;;;;;;9.57;8.63;;;20.10;77.90;;;;;;5068318;28;20716;-72
2022/11/23 08:39:00;;;;;;;10.27;9.00;;;20.60;75.90;;;;;;5066447;28;20191;-70
2022/11/23 08:41:26;;;;;;;9.48;8.20;;;21.10;75.60;;;;;;5066976;28;20191;-70
2022/11/23 08:43:51;;;;;;;9.30;8.07;;;21.60;73.90;;;;;;5064117;28;20332;-71
2022/11/23 08:46:17;;;;;;;9.38;8.48;;;22.00;73.30;;;;;;5058752;28;20187;-71
2022/11/23 08:48:43;;;;;;;10.02;9.02;;;22.40;73.10;;;;;;5067348;28;20736;-72
2022/11/23 08:51:09;;;;;;;10.02;9.00;;;22.80;71.80;;;;;;5064289;28;20786;-71
2022/11/23 08:53:35;;;;;;;10.73;8.68;;;23.00;68.30;;;;;;5060846;28;20193;-71
2022/11/23 08:56:03;;;;;;;9.38;8.68;;;22.80;70.10;;;;;;5069249;28;20186;-71
2022/11/23 08:58:29;;;;;;;9.48;8.57;;;22.60;70.00;;;;;;5068942;28;20986;-71
2022/11/23 09:00:55;;;;;;;9.00;8.10;;;22.20;67.70;;;;;;5054601;28;20226;-72
2022/11/23 09:03:20;;;;;;;8.65;7.90;;;21.70;69.70;;;;;;5056535;28;20649;-72
2022/11/23 09:05:46;;;;;;;7.57;6.57;;;21.40;71.40;;;;;;5063200;28;20240;-72
2022/11/23 09:08:12;;;;;;;7.35;6.68;;;21.50;71.80;;;;;;5068071;28;20186;-71
2022/11/23 09:10:38;;;;;;;7.65;6.97;;;21.70;71.30;;;;;;5058273;28;20206;-72
2022/11/23 09:13:04;;;;;;;7.63;7.03;;;22.00;70.80;;;;;;5057948;28;20182;-71
2022/11/23 09:15:29;;;;;;;9.05;8.00;;;22.20;70.30;;;;;;5066483;28;20686;-72
2022/11/23 09:17:56;;;;;;;9.80;8.77;;;22.40;69.30;;;;;;5058739;28;20774;-71
2022/11/23 09:20:22;;;;;;;13.52;10.10;;;22.40;69.10;;;;;;5060668;28;20183;-72
2022/11/23 09:22:52;;;;;;;9.90;8.93;;;22.50;66.30;;;;;;5053488;28;20174;-71
2022/11/23 09:25:18;;;;;;;9.05;8.15;;;22.50;68.80;;;;;;5068463;28;20273;-72
2022/11/23 09:27:44;;;;;;;7.32;6.72;;;22.80;68.80;;;;;;5064688;28;20179;-71
2022/11/23 09:30:11;;;;;;;7.30;6.60;;;23.00;68.10;;;;;;5066603;28;20217;-72
2022/11/23 09:32:36;;;;;;;6.78;6.22;;;23.20;67.60;;;;;;5073410;28;20793;-71
2022/11/23 09:35:02;;;;;;;6.88;6.28;;;23.20;68.00;;;;;;5068831;28;20179;-71
2022/11/23 09:37:28;;;;;;;6.68;6.07;;;23.20;67.80;;;;;;5067326;28;20259;-71
2022/11/23 09:39:54;;;;;;;6.05;5.47;;;23.30;66.30;;;;;;5072449;28;20186;-72
2022/11/23 09:42:52;;;;;;;5.50;5.10;;;23.40;66.80;;;;;;5071056;28;20186;-71
2022/11/23 09:45:44;;;;;;;4.88;4.57;;;23.30;66.20;;;;;;5068180;28;20711;-70
2022/11/23 09:48:12;;;;;;;5.30;4.97;;;23.20;66.60;;;;;;5065986;28;20182;-71
2022/11/23 09:50:47;;;;;;;5.60;5.20;;;23.30;67.10;;;;;;5071983;28;20274;-72
2022/11/23 09:53:21;;;;;;;5.45;4.95;;;23.40;66.60;;;;;;5066414;28;20204;-72
2022/11/23 09:55:50;;;;;;;5.20;4.75;;;23.80;66.00;;;;;;5064484;28;20670;-72
2022/11/23 09:58:19;;;;;;;4.57;4.28;;;24.10;64.50;;;;;;5063538;28;20205;-72
2022/11/23 10:01:01;;;;;;;5.00;4.70;;;24.30;64.50;;;;;;5057579;28;20226;-71
2022/11/23 10:03:28;;;;;;;5.03;4.80;;;24.50;64.60;;;;;;5058542;28;20194;-72
2022/11/23 10:05:59;;;;;;;4.60;4.30;;;24.80;63.90;;;;;;5064258;28;20178;-72
2022/11/23 10:08:33;;;;;;;4.28;3.95;;;25.20;64.20;;;;;;5069480;28;20195;-72
2022/11/23 10:11:18;;;;;;;4.70;4.35;;;25.60;61.90;;;;;;5065901;28;20762;-71
2022/11/23 10:14:00;;;;;;;5.25;4.43;;;25.90;63.60;;;;;;5058851;28;20218;-71
2022/11/23 10:16:47;;;;;;;3.95;3.53;;;26.30;61.30;;;;;;5062757;28;20194;-71
2022/11/23 10:19:33;;;;;;;4.05;3.75;;;26.40;63.00;;;;;;5065829;28;20323;-71
2022/11/23 10:22:29;;;;;;;4.13;3.92;;;26.50;62.90;;;;;;5065727;28;20198;-71
2022/11/23 10:24:54;;;;;;;3.60;3.40;;;26.80;62.50;;;;;;5065458;28;20186;-71
2022/11/23 10:27:22;;;;;;;4.20;3.88;;;27.20;61.80;;;;;;5063868;28;20187;-71
2022/11/23 10:29:49;;;;;;;3.95;3.83;;;27.40;60.70;;;;;;5064202;28;20187;-71
2022/11/23 10:32:33;;;;;;;4.75;4.35;;;27.40;61.80;;;;;;5069467;28;20192;-71
2022/11/23 10:35:09;;;;;;;3.72;3.63;;;27.10;59.50;;;;;;5066856;28;20188;-71
2022/11/23 10:37:38;;;;;;;2.97;2.88;;;26.50;60.90;;;;;;5071847;28;20253;-71
2022/11/23 10:40:15;;;;;;;4.40;3.30;;;26.30;62.60;;;;;;5073186;28;20213;-71
2022/11/23 10:42:50;;;;;;;3.03;2.63;;;26.40;62.50;;;;;;5067389;28;20190;-71
2022/11/23 10:45:22;;;;;;;3.58;3.47;;;26.60;62.90;;;;;;5066962;28;20198;-73
2022/11/23 10:47:53;;;;;;;3.28;3.10;;;26.90;60.60;;;;;;5068441;28;20573;-73
2022/11/23 10:50:33;;;;;;;3.50;2.80;;;27.30;58.70;;;;;;5057965;28;20241;-73
2022/11/23 10:53:17;;;;;;;2.97;2.85;;;27.60;59.30;;;;;;5059845;28;20179;-75
2022/11/23 10:55:58;;;;;;;2.67;2.58;;;27.90;59.60;;;;;;5063009;28;20194;-74
2022/11/23 10:58:33;;;;;;;2.70;2.60;;;28.10;60.60;;;;;;5070758;28;20343;-73
2022/11/23 11:01:05;;;;;;;2.10;2.10;;;28.10;60.40;;;;;;5067285;28;20198;-73
2022/11/23 11:03:33;;;;;;;2.10;2.00;;;28.20;57.50;;;;;;5061436;28;20727;-74
2022/11/23 11:05:59;;;;;;;1.70;1.70;;;28.20;56.30;;;;;;5065369;28;20170;-74
2022/11/23 11:08:31;;;;;;;1.40;1.40;;;28.20;56.00;;;;;;5063685;28;20214;-74
2022/11/23 11:11:05;;;;;;;1.70;1.70;;;28.20;56.40;;;;;;5065834;28;20215;-73
2022/11/23 11:13:43;;;;;;;1.33;1.33;;;28.30;55.10;;;;;;5069342;28;20187;-73
2022/11/23 11:16:21;;;;;;;1.40;1.40;;;28.10;56.60;;;;;;5067668;28;20629;-73
2022/11/23 11:18:47;;;;;;;1.08;1.05;;;28.00;55.50;;;;;;5068150;28;20602;-73
2022/11/23 11:21:31;;;;;;;2.35;0.90;;;27.90;57.00;;;;;;5064459;28;20202;-75
2022/11/23 11:24:03;;;;;;;1.30;1.20;;;27.90;57.00;;;;;;5063896;28;20175;-75
2022/11/23 11:26:33;;;;;;;0.95;0.95;;;28.00;58.20;;;;;;5067369;28;20186;-72
2022/11/23 11:29:05;;;;;;;1.58;1.25;;;28.10;55.70;;;;;;5065632;28;20257;-72
2022/11/23 11:31:45;;;;;;;1.13;1.13;;;27.90;53.20;;;;;;5062158;28;20210;-71
2022/11/23 11:34:29;;;;;;;1.42;1.42;;;27.80;58.50;;;;;;5057854;28;20194;-71
2022/11/23 11:36:55;;;;;;;1.67;1.63;;;27.80;56.00;;;;;;5069364;28;20243;-72
2022/11/23 11:39:33;;;;;;;1.98;1.88;;;27.90;56.80;;;;;;5066017;28;20202;-71
2022/11/23 11:42:03;;;;;;;1.77;1.70;;;28.00;58.20;;;;;;5071366;28;20175;-72
2022/11/23 11:44:34;;;;;;;1.67;1.30;;;28.10;55.50;;;;;;5061384;28;20202;-71
2022/11/23 11:47:28;;;;;;;1.08;1.00;;;28.20;57.60;;;;;;5067324;28;20260;-72
2022/11/23 11:49:57;;;;;;;0.98;0.98;;;28.30;57.10;;;;;;5065067;28;20267;-71
2022/11/23 11:52:38;;;;;;;0.40;0.40;;;28.30;51.70;;;;;;5061803;28;20183;-76
2022/11/23 11:55:25;;;;;;;0.55;0.55;;;28.30;51.80;;;;;;5064670;28;20227;-74
2022/11/23 11:58:09;;;;;;;0.40;0.40;;;27.90;50.60;;;;;;5062743;28;20608;-74
2022/11/23 12:00:38;;;;;;;0.57;0.52;;;27.60;52.30;;;;;;5062204;28;20831;-73
2022/11/23 12:03:58;;;;;;;2.95;0.73;;;27.10;54.30;;;;;;5061692;28;20246;-73
2022/11/23 12:06:34;;;;;;;1.02;0.57;;;26.70;52.00;;;;;;5039352;28;20206;-73
2022/11/23 12:09:02;;;;;;;1.15;0.50;;;26.50;56.40;;;;;;5040221;28;20193;-73
2022/11/23 12:11:28;;;;;;;1.30;0.57;;;26.60;52.80;;;;;;5041279;28;20226;-72
2022/11/23 12:14:00;;;;;;;1.40;0.50;;;26.60;55.30;;;;;;5042260;28;20191;-74
2022/11/23 12:16:52;;;;;;;0.55;0.55;;;26.60;52.90;;;;;;5041475;28;20214;-73
2022/11/23 12:19:36;;;;;;;0.52;0.52;;;26.50;52.70;;;;;;5040309;28;20632;-73
2022/11/23 12:22:35;;;;;;;0.40;0.40;;;26.50;55.10;;;;;;5044368;28;20278;-73
2022/11/23 12:25:32;;;;;;;0.95;0.50;;;26.50;53.60;;;;;;5045329;28;20195;-73
2022/11/23 12:28:21;;;;;;;0.50;0.40;;;26.50;53.30;;;;;;5038143;28;20286;-73
2022/11/23 12:31:01;;;;;;;0.73;0.60;;;26.50;52.80;;;;;;5043153;28;20214;-73
2022/11/23 12:33:38;;;;;;;0.90;0.50;;;26.30;51.90;;;;;;5044665;28;20393;-73
2022/11/23 12:36:23;;;;;;;0.40;0.40;;;26.10;54.40;;;;;;5048292;28;20283;-73
2022/11/23 12:39:12;;;;;;;0.68;0.50;;;26.00;52.40;;;;;;5046658;28;20182;-73
2022/11/23 12:41:58;;;;;;;0.80;0.50;;;25.80;51.20;;;;;;5067449;28;20186;-72
2022/11/23 12:44:43;;;;;;;0.40;0.40;;;25.50;51.50;;;;;;5061889;28;20198;-73
2022/11/23 12:47:20;;;;;;;0.20;0.20;;;25.20;54.70;;;;;;5066542;28;20190;-72
2022/11/23 12:50:04;;;;;;;0.22;0.22;;;25.00;51.90;;;;;;5058826;28;20929;-73
2022/11/23 12:52:53;;;;;;;0.20;0.20;;;24.70;49.20;;;;;;5064274;28;20190;-71
2022/11/23 12:55:18;;;;;;;0.20;0.10;;;24.10;50.40;;;;;;5068535;28;20605;-71
2022/11/23 12:57:53;;;;;;;0.40;0.35;;;23.70;52.60;;;;;;5065740;28;20262;-72
2022/11/23 13:00:20;;;;;;;1.08;0.20;;;23.30;52.70;;;;;;5066212;28;20185;-73
2022/11/23 13:03:03;;;;;;;0.45;0.20;;;23.10;53.70;;;;;;5065866;28;22004;-73
2022/11/23 13:05:46;;;;;;;0.43;0.30;;;22.80;54.80;;;;;;5068313;28;20193;-73